Time;durP1;ratioP1;P1;durP2;ratioP2;P2;SDS_P1;SDS_P2;PMS_P1;PMS_P2;Temp;Humidity;BMP_temperature;BMP_pressure;BME280_temperature;BME280_humidity;BME280_pressure;Samples;Min_cycle;Max_cycle;Signal;HPM_P1;HPM_P2
2021/11/17 02:26:28;;;;;;;;;;;;;;;4.33;100.00;101460.88;4950935;28;20005;-83
2021/11/17 02:28:56;;;;;;;;;;;;;;;4.34;100.00;101459.91;5008744;28;19985;-83
2021/11/17 02:31:40;;;;;;;;;;;;;;;4.34;100.00;101460.75;4990619;28;19924;-85
2021/11/17 02:34:12;;;;;;;;;;;;;;;4.36;100.00;101455.34;5006907;28;19936;-84
2021/11/17 02:36:56;;;;;;;;;;;;;;;4.36;100.00;101458.00;4974100;28;19917;-81
2021/11/17 02:39:34;;;;;;;;;;;;;;;4.36;100.00;101460.66;5004813;28;19913;-85
2021/11/17 02:42:08;;;;;;;;;;;;;;;4.34;100.00;101462.56;4973137;28;19918;-82
2021/11/17 02:44:34;;;;;;;;;;;;;;;4.34;100.00;101454.59;5008867;28;19996;-82
2021/11/17 02:47:02;;;;;;;;;;;;;;;4.36;100.00;101447.38;4991056;28;20008;-84
2021/11/17 02:49:43;;;;;;;;;;;;;;;4.37;100.00;101433.97;5008162;28;20123;-83
2021/11/17 02:52:11;;;;;;;;;;;;;;;4.36;100.00;101439.41;5007152;28;19935;-83
2021/11/17 02:54:52;;;;;;;;;;;;;;;4.37;100.00;101446.41;5009060;28;19920;-83
2021/11/17 02:57:17;;;;;;;;;;;;;;;4.33;100.00;101450.25;4989646;28;19920;-83
2021/11/17 02:59:51;;;;;;;;;;;;;;;4.34;100.00;101443.97;5008788;28;19914;-84
2021/11/17 03:02:23;;;;;;;;;;;;;;;4.35;100.00;101430.59;4990705;28;20255;-84
2021/11/17 03:04:52;;;;;;;;;;;;;;;4.36;100.00;101431.44;4971003;28;19917;-84
2021/11/17 03:07:26;;;;;;;;;;;;;;;4.36;100.00;101420.81;5010320;28;19971;-82
2021/11/17 03:10:05;;;;;;;;;;;;;;;4.38;100.00;101427.72;5010395;28;19913;-84
2021/11/17 03:12:49;;;;;;;;;;;;;;;4.38;100.00;101443.66;4992333;28;19959;-83
2021/11/17 03:15:17;;;;;;;;;;;;;;;4.38;100.00;101469.38;5012195;28;19920;-83
2021/11/17 03:17:43;;;;;;;;;;;;;;;4.42;100.00;101473.50;5012621;28;20563;-85
2021/11/17 03:20:08;;;;;;;;;;;;;;;4.41;100.00;101461.19;5013068;28;19913;-84
2021/11/17 03:22:39;;;;;;;;;;;;;;;4.42;100.00;101465.53;5006158;28;19955;-84
2021/11/17 03:25:23;;;;;;;;;;;;;;;4.45;100.00;101467.97;5013606;28;20326;-82
2021/11/17 03:27:51;;;;;;;;;;;;;;;4.43;100.00;101464.56;4998618;28;19952;-83
2021/11/17 03:30:23;;;;;;;;;;;;;;;4.43;100.00;101459.25;5009889;28;19925;-83
2021/11/17 03:32:51;;;;;;;;;;;;;;;4.46;100.00;101469.66;4990501;28;19921;-83
2021/11/17 03:35:35;;;;;;;;;;;;;;;4.47;100.00;101476.72;4992311;28;19917;-83
2021/11/17 03:38:08;;;;;;;;;;;;;;;4.49;100.00;101469.47;5010896;28;19917;-83
2021/11/17 03:40:36;;;;;;;;;;;;;;;4.48;100.00;101463.28;5009986;28;19967;-82
2021/11/17 03:43:17;;;;;;;;;;;;;;;4.49;100.00;101454.38;5007586;28;19913;-84
2021/11/17 03:45:51;;;;;;;;;;;;;;;4.51;100.00;101456.91;4989478;28;19922;-83
2021/11/17 03:48:45;;;;;;;;;;;;;;;4.49;100.00;101453.53;4988424;28;19924;-85
2021/11/17 03:51:23;;;;;;;;;;;;;;;4.49;100.00;101459.69;4978191;28;19913;-83
2021/11/17 03:53:57;;;;;;;;;;;;;;;4.52;100.00;101469.25;5009663;28;19940;-83
2021/11/17 03:56:44;;;;;;;;;;;;;;;4.56;100.00;101469.88;5006728;28;20073;-83
2021/11/17 03:59:29;;;;;;;;;;;;;;;4.58;100.00;101474.16;4991178;28;19980;-83
2021/11/17 04:02:04;;;;;;;;;;;;;;;4.58;100.00;101462.66;4974981;28;20595;-82
2021/11/17 04:04:38;;;;;;;;;;;;;;;4.59;100.00;101462.53;4991739;28;19920;-83
2021/11/17 04:07:04;;;;;;;;;;;;;;;4.62;100.00;101461.47;5008117;28;19922;-84
2021/11/17 04:10:01;;;;;;;;;;;;;;;4.60;100.00;101461.56;4992514;28;19918;-83
2021/11/17 04:12:50;;;;;;;;;;;;;;;4.62;100.00;101464.13;4951123;28;19913;-82
2021/11/17 04:15:27;;;;;;;;;;;;;;;4.62;100.00;101458.81;4987794;28;20323;-83
2021/11/17 04:17:59;;;;;;;;;;;;;;;4.64;100.00;101459.56;4987600;28;19920;-82
2021/11/17 04:20:32;;;;;;;;;;;;;;;4.63;100.00;101456.06;4989502;28;19925;-83
2021/11/17 04:23:18;;;;;;;;;;;;;;;4.66;100.00;101454.97;4992777;28;20011;-84
2021/11/17 04:25:55;;;;;;;;;;;;;;;4.66;100.00;101462.94;4989492;28;19918;-83
2021/11/17 04:28:33;;;;;;;;;;;;;;;4.67;100.00;101469.97;4985486;28;20004;-83
2021/11/17 04:31:05;;;;;;;;;;;;;;;4.66;100.00;101457.63;4991787;28;20401;-84
2021/11/17 04:33:33;;;;;;;;;;;;;;;4.65;100.00;101451.47;5005663;28;19925;-84
2021/11/17 04:35:59;;;;;;;;;;;;;;;4.65;100.00;101448.81;5009594;28;20274;-85
2021/11/17 04:38:32;;;;;;;;;;;;;;;4.68;100.00;101447.75;5007095;28;19913;-83
2021/11/17 04:41:16;;;;;;;;;;;;;;;4.69;100.00;101442.31;4989732;28;19913;-82
2021/11/17 04:43:49;;;;;;;;;;;;;;;4.70;100.00;101456.47;5005972;28;19913;-84
2021/11/17 04:46:18;;;;;;;;;;;;;;;4.70;100.00;101467.94;4971795;28;19918;-83
2021/11/17 04:49:04;;;;;;;;;;;;;;;4.67;100.00;101454.03;5004605;28;19924;-84
2021/11/17 04:51:32;;;;;;;;;;;;;;;4.71;100.00;101466.97;5009103;28;19917;-84
2021/11/17 04:54:05;;;;;;;;;;;;;;;4.69;100.00;101463.59;5011942;28;19917;-83
2021/11/17 04:56:37;;;;;;;;;;;;;;;4.73;100.00;101453.59;4990150;28;19924;-84
2021/11/17 04:59:02;;;;;;;;;;;;;;;4.73;100.00;101437.63;4991409;28;19913;-83
2021/11/17 05:01:46;;;;;;;;;;;;;;;4.73;100.00;101450.91;5009500;28;20377;-82
2021/11/17 05:04:20;;;;;;;;;;;;;;;4.71;100.00;101448.34;5003882;28;19943;-83
2021/11/17 05:07:01;;;;;;;;;;;;;;;4.72;100.00;101460.72;5004398;28;19992;-83
2021/11/17 05:09:26;;;;;;;;;;;;;;;4.73;100.00;101451.78;4993211;28;19944;-82
2021/11/17 05:12:07;;;;;;;;;;;;;;;4.75;100.00;101449.00;5009615;28;19920;-82
2021/11/17 05:14:44;;;;;;;;;;;;;;;4.74;100.00;101452.63;5009180;28;19928;-82
2021/11/17 05:17:12;;;;;;;;;;;;;;;4.72;100.00;101458.06;5006518;28;19921;-82
2021/11/17 05:19:56;;;;;;;;;;;;;;;4.71;100.00;101443.03;5007593;28;19983;-83
2021/11/17 05:22:21;;;;;;;;;;;;;;;4.74;100.00;101437.50;5009316;28;19921;-83
2021/11/17 05:24:49;;;;;;;;;;;;;;;4.71;100.00;101432.41;5008544;28;19913;-84
2021/11/17 05:27:21;;;;;;;;;;;;;;;4.72;100.00;101430.63;5007562;28;19918;-84
2021/11/17 05:29:52;;;;;;;;;;;;;;;4.72;100.00;101441.25;4984987;28;19989;-84
2021/11/17 05:32:24;;;;;;;;;;;;;;;4.73;100.00;101441.13;5002332;28;20551;-82
2021/11/17 05:34:53;;;;;;;;;;;;;;;4.74;100.00;101440.16;4988048;28;19917;-82
2021/11/17 05:37:26;;;;;;;;;;;;;;;4.73;100.00;101441.13;4999881;28;19914;-82
2021/11/17 05:40:08;;;;;;;;;;;;;;;4.73;100.00;101433.16;4968977;28;19921;-84
2021/11/17 05:42:36;;;;;;;;;;;;;;;4.72;100.00;101428.81;4983674;28;20397;-84
2021/11/17 05:45:14;;;;;;;;;;;;;;;4.73;100.00;101424.34;5006089;28;19914;-82
2021/11/17 05:48:02;;;;;;;;;;;;;;;4.75;100.00;101417.94;4964978;28;20374;-85
2021/11/17 05:50:34;;;;;;;;;;;;;;;4.74;100.00;101408.25;4985331;28;19927;-82
2021/11/17 05:53:11;;;;;;;;;;;;;;;4.73;100.00;101406.56;4968767;28;19921;-84
2021/11/17 05:56:00;;;;;;;;;;;;;;;4.77;100.00;101403.69;4986957;28;22011;-84
2021/11/17 05:58:43;;;;;;;;;;;;;;;4.74;100.00;101400.28;5003667;28;19956;-82
2021/11/17 06:01:15;;;;;;;;;;;;;;;4.75;100.00;101391.34;5003087;28;19922;-83
2021/11/17 06:03:57;;;;;;;;;;;;;;;4.74;100.00;101394.13;4977071;28;20499;-83
2021/11/17 06:06:22;;;;;;;;;;;;;;;4.75;100.00;101390.50;4983824;28;19918;-83
2021/11/17 06:08:54;;;;;;;;;;;;;;;4.79;100.00;101391.13;5005858;28;19917;-82
2021/11/17 06:11:22;;;;;;;;;;;;;;;4.79;100.00;101399.94;5002571;28;19917;-84
2021/11/17 06:13:48;;;;;;;;;;;;;;;4.80;100.00;101393.66;4988810;28;19937;-83
2021/11/17 06:16:16;;;;;;;;;;;;;;;4.79;100.00;101384.00;5007546;28;19944;-83
2021/11/17 06:18:42;;;;;;;;;;;;;;;4.80;100.00;101376.88;4986059;28;19913;-83
2021/11/17 06:21:13;;;;;;;;;;;;;;;4.80;100.00;101382.19;5002541;28;20043;-82
2021/11/17 06:23:51;;;;;;;;;;;;;;;4.75;100.00;101377.22;5007652;28;19964;-83
2021/11/17 06:26:36;;;;;;;;;;;;;;;4.74;100.00;101386.13;4999651;28;20821;-82
2021/11/17 06:29:04;;;;;;;;;;;;;;;4.78;100.00;101402.75;5004787;28;19917;-84
2021/11/17 06:31:31;;;;;;;;;;;;;;;4.78;100.00;101410.72;4990123;28;19921;-82
2021/11/17 06:33:56;;;;;;;;;;;;;;;4.81;100.00;101415.81;5003416;28;19960;-82
2021/11/17 06:36:22;;;;;;;;;;;;;;;4.81;100.00;101414.00;5003256;28;20015;-82
2021/11/17 06:38:48;;;;;;;;;;;;;;;4.80;100.00;101408.78;5007978;28;19920;-83
2021/11/17 06:41:14;;;;;;;;;;;;;;;4.82;100.00;101413.03;5006240;28;19923;-82
2021/11/17 06:43:40;;;;;;;;;;;;;;;4.83;100.00;101421.84;4990406;28;20263;-82
2021/11/17 06:46:05;;;;;;;;;;;;;;;4.82;100.00;101430.78;5007498;28;19925;-82
2021/11/17 06:48:30;;;;;;;;;;;;;;;4.84;100.00;101435.03;5009193;28;19917;-84
2021/11/17 06:50:57;;;;;;;;;;;;;;;4.86;100.00;101426.94;5010672;28;19928;-83
2021/11/17 06:53:23;;;;;;;;;;;;;;;4.90;100.00;101428.44;4992220;28;19913;-85
2021/11/17 06:55:49;;;;;;;;;;;;;;;4.91;100.00;101433.63;4992851;28;20006;-84
2021/11/17 06:58:17;;;;;;;;;;;;;;;4.90;100.00;101431.09;4989926;28;19914;-85
2021/11/17 07:00:43;;;;;;;;;;;;;;;4.90;100.00;101439.06;4994006;28;20416;-86
2021/11/17 07:03:11;;;;;;;;;;;;;;;4.92;100.00;101437.13;4971262;28;19921;-86
2021/11/17 07:05:37;;;;;;;;;;;;;;;4.92;100.00;101440.66;5010671;28;19924;-84
2021/11/17 07:08:04;;;;;;;;;;;;;;;4.96;100.00;101435.97;5012475;28;19917;-83
2021/11/17 07:10:32;;;;;;;;;;;;;;;4.98;100.00;101442.03;5011415;28;19933;-85
2021/11/17 07:12:57;;;;;;;;;;;;;;;4.98;100.00;101439.38;4992420;28;20362;-85
2021/11/17 07:15:26;;;;;;;;;;;;;;;4.97;100.00;101441.16;5012190;28;19992;-84
2021/11/17 07:17:55;;;;;;;;;;;;;;;5.01;100.00;101438.28;5009591;28;19914;-85
2021/11/17 07:20:20;;;;;;;;;;;;;;;5.05;100.00;101450.41;4993726;28;19914;-85
2021/11/17 07:22:48;;;;;;;;;;;;;;;5.05;100.00;101445.91;5011590;28;19940;-84
2021/11/17 07:25:17;;;;;;;;;;;;;;;5.06;100.00;101442.28;5010722;28;20269;-85
2021/11/17 07:27:42;;;;;;;;;;;;;;;5.07;100.00;101432.53;5009729;28;19936;-85
2021/11/17 07:30:15;;;;;;;;;;;;;;;5.06;100.00;101436.97;5011659;28;19949;-84
2021/11/17 07:32:41;;;;;;;;;;;;;;;5.09;100.00;101441.22;4980550;28;19967;-86
2021/11/17 07:35:08;;;;;;;;;;;;;;;5.11;100.00;101456.09;4994068;28;19980;-86
2021/11/17 07:37:37;;;;;;;;;;;;;;;5.14;100.00;101455.03;5011438;28;19975;-84
2021/11/17 07:40:03;;;;;;;;;;;;;;;5.15;100.00;101452.28;5006908;28;19913;-83
2021/11/17 07:42:31;;;;;;;;;;;;;;;5.17;100.00;101450.34;5010849;28;20378;-85
2021/11/17 07:44:57;;;;;;;;;;;;;;;5.19;100.00;101447.56;5011306;28;19921;-87
2021/11/17 07:47:22;;;;;;;;;;;;;;;5.18;100.00;101449.38;4990522;28;19987;-85
2021/11/17 07:49:47;;;;;;;;;;;;;;;5.18;100.00;101446.72;4991899;28;20389;-84
2021/11/17 07:52:13;;;;;;;;;;;;;;;5.20;100.00;101447.44;4989691;28;19953;-85
2021/11/17 07:54:38;;;;;;;;;;;;;;;5.22;100.00;101444.69;5009646;28;19917;-85
2021/11/17 07:57:08;;;;;;;;;;;;;;;5.25;100.00;101431.16;4993547;28;19917;-85
2021/11/17 07:59:39;;;;;;;;;;;;;;;5.27;100.00;101439.03;4990123;28;19967;-84
2021/11/17 08:02:09;;;;;;;;;;;;;;;5.28;100.00;101451.38;4993775;28;19917;-86
2021/11/17 08:04:36;;;;;;;;;;;;;;;5.30;100.00;101444.13;4992616;28;19956;-86
2021/11/17 08:07:10;;;;;;;;;;;;;;;5.31;100.00;101456.44;5010211;28;19996;-84
2021/11/17 08:09:36;;;;;;;;;;;;;;;5.33;100.00;101443.88;5010131;28;19936;-84
2021/11/17 08:12:03;;;;;;;;;;;;;;;5.34;100.00;101443.75;4989617;28;19913;-85
2021/11/17 08:14:29;;;;;;;;;;;;;;;5.36;100.00;101451.66;4991895;28;19917;-84
2021/11/17 08:16:54;;;;;;;;;;;;;;;5.37;100.00;101450.66;4990626;28;19979;-86
2021/11/17 08:19:20;;;;;;;;;;;;;;;5.39;100.00;101448.75;4992003;28;19913;-85
2021/11/17 08:21:46;;;;;;;;;;;;;;;5.36;100.00;101443.66;5010776;28;19914;-85
2021/11/17 08:24:11;;;;;;;;;;;;;;;5.39;100.00;101438.94;5009005;28;19924;-85
2021/11/17 08:26:38;;;;;;;;;;;;;;;5.41;100.00;101437.03;5009442;28;19917;-84
2021/11/17 08:29:06;;;;;;;;;;;;;;;5.40;100.00;101431.81;4976021;28;19913;-84
2021/11/17 08:31:32;;;;;;;;;;;;;;;5.40;100.00;101435.31;5008302;28;19924;-85
2021/11/17 08:33:59;;;;;;;;;;;;;;;5.42;100.00;101432.56;5009857;28;19918;-86
2021/11/17 08:36:27;;;;;;;;;;;;;;;5.45;100.00;101442.13;5010044;28;20417;-85
2021/11/17 08:38:54;;;;;;;;;;;;;;;5.48;100.00;101448.06;5008882;28;19960;-87
2021/11/17 08:41:21;;;;;;;;;;;;;;;5.50;100.00;101462.09;5009299;28;19914;-84
2021/11/17 08:43:49;;;;;;;;;;;;;;;5.53;100.00;101469.03;4992703;28;19913;-85
2021/11/17 08:46:17;;;;;;;;;;;;;;;5.51;100.00;101474.44;5009607;28;19917;-84
2021/11/17 08:48:42;;;;;;;;;;;;;;;5.54;100.00;101476.88;5009170;28;19920;-85
2021/11/17 08:51:15;;;;;;;;;;;;;;;5.54;100.00;101482.19;4990139;28;19917;-85
2021/11/17 08:53:48;;;;;;;;;;;;;;;5.54;100.00;101484.88;5005372;28;21896;-85
2021/11/17 08:56:17;;;;;;;;;;;;;;;5.57;100.00;101484.63;5009396;28;19919;-83
2021/11/17 08:58:43;;;;;;;;;;;;;;;5.59;100.00;101489.84;4984432;28;19921;-85
2021/11/17 09:01:09;;;;;;;;;;;;;;;5.61;100.00;101469.25;4989088;28;19924;-84
2021/11/17 09:03:35;;;;;;;;;;;;;;;5.63;100.00;101478.84;4991330;28;20040;-84
2021/11/17 09:06:05;;;;;;;;;;;;;;;5.65;100.00;101482.25;4992363;28;20404;-86
2021/11/17 09:08:33;;;;;;;;;;;;;;;5.69;100.00;101488.19;5008491;28;19920;-84
2021/11/17 09:11:00;;;;;;;;;;;;;;;5.73;100.00;101479.00;4990440;28;19921;-84
2021/11/17 09:13:26;;;;;;;;;;;;;;;5.76;100.00;101477.94;5009141;28;19919;-86
2021/11/17 09:15:54;;;;;;;;;;;;;;;5.79;100.00;101481.22;5010644;28;19996;-86
2021/11/17 09:18:21;;;;;;;;;;;;;;;5.80;100.00;101477.56;5007357;28;19967;-85
2021/11/17 09:20:46;;;;;;;;;;;;;;;5.83;100.00;101479.16;4994385;28;20390;-85
2021/11/17 09:23:13;;;;;;;;;;;;;;;5.85;100.00;101466.56;4977579;28;19993;-86
2021/11/17 09:25:38;;;;;;;;;;;;;;;5.87;100.00;101491.28;5010733;28;19925;-84
2021/11/17 09:28:04;;;;;;;;;;;;;;;5.87;100.00;101496.63;5011985;28;19913;-86
2021/11/17 09:30:31;;;;;;;;;;;;;;;5.89;100.00;101487.50;5011220;28;19913;-84
2021/11/17 09:32:57;;;;;;;;;;;;;;;5.89;100.00;101497.31;5005305;28;19971;-86
2021/11/17 09:35:23;;;;;;;;;;;;;;;5.91;100.00;101491.91;4985744;28;19913;-85
2021/11/17 09:37:49;;;;;;;;;;;;;;;5.90;100.00;101496.38;4993916;28;19924;-84
2021/11/17 09:40:18;;;;;;;;;;;;;;;5.91;100.00;101502.56;5010629;28;19914;-85
2021/11/17 09:42:43;;;;;;;;;;;;;;;5.93;100.00;101500.59;4993715;28;19913;-86
2021/11/17 09:45:10;;;;;;;;;;;;;;;5.94;100.00;101497.88;5011488;28;19919;-83
2021/11/17 09:47:36;;;;;;;;;;;;;;;5.94;100.00;101503.19;4989462;28;20462;-86
2021/11/17 09:50:07;;;;;;;;;;;;;;;5.93;100.00;101504.19;4993946;28;19913;-85
2021/11/17 09:52:38;;;;;;;;;;;;;;;5.93;100.00;101506.84;4990778;28;20313;-84
2021/11/17 09:55:06;;;;;;;;;;;;;;;5.95;100.00;101504.03;5003763;28;20392;-85
2021/11/17 09:57:34;;;;;;;;;;;;;;;5.98;100.00;101504.66;4993414;28;19987;-84
2021/11/17 10:00:11;;;;;;;;;;;;;;;6.00;100.00;101500.06;4974752;28;20402;-87
2021/11/17 10:02:48;;;;;;;;;;;;;;;6.02;100.00;101508.78;5007145;28;19913;-87
2021/11/17 10:05:13;;;;;;;;;;;;;;;6.04;100.00;101501.53;5007493;28;20353;-85
2021/11/17 10:13:19;;;;;;;;;;;;;;;6.10;100.00;101492.22;5004941;28;20334;-85
2021/11/17 10:15:47;;;;;;;;;;;;;;;6.12;100.00;101503.59;4993375;28;19914;-84
2021/11/17 10:18:19;;;;;;;;;;;;;;;6.16;100.00;101504.19;5013418;28;19913;-85
2021/11/17 10:20:47;;;;;;;;;;;;;;;6.18;100.00;101503.13;5010898;28;20492;-86
2021/11/17 10:23:24;;;;;;;;;;;;;;;6.21;100.00;101499.38;5006141;28;20044;-84
2021/11/17 10:25:49;;;;;;;;;;;;;;;6.23;100.00;101503.63;4964873;28;19921;-84
2021/11/17 10:28:25;;;;;;;;;;;;;;;6.24;100.00;101493.81;5013148;28;20393;-85
2021/11/17 10:30:50;;;;;;;;;;;;;;;6.26;100.00;101497.22;5013628;28;19920;-85
2021/11/17 10:33:21;;;;;;;;;;;;;;;6.28;100.00;101503.28;5012106;28;19917;-84
2021/11/17 10:35:58;;;;;;;;;;;;;;;6.28;100.00;101500.59;5005430;28;19913;-84
2021/11/17 10:38:27;;;;;;;;;;;;;;;6.30;100.00;101503.97;5007633;28;19960;-85
2021/11/17 10:40:57;;;;;;;;;;;;;;;6.32;100.00;101502.06;4995789;28;20004;-84
2021/11/17 10:43:29;;;;;;;;;;;;;;;6.33;100.00;101511.78;4995352;28;20327;-84
2021/11/17 10:46:02;;;;;;;;;;;;;;;6.36;100.00;101521.31;5013537;28;19917;-87
2021/11/17 10:48:29;;;;;;;;;;;;;;;6.36;100.00;101523.97;5011957;28;19924;-85
2021/11/17 10:51:16;;;;;;;;;;;;;;;6.34;100.00;101521.47;5011689;28;19917;-88
2021/11/17 10:53:47;;;;;;;;;;;;;;;6.36;100.00;101510.66;5009572;28;19913;-85
2021/11/17 10:56:13;;;;;;;;;;;;;;;6.37;100.00;101529.22;5012720;28;19913;-86
2021/11/17 10:58:40;;;;;;;;;;;;;;;6.38;100.00;101524.72;4995199;28;19919;-86
2021/11/17 11:01:15;;;;;;;;;;;;;;;6.39;100.00;101540.63;4995136;28;19981;-85
2021/11/17 11:03:49;;;;;;;;;;;;;;;6.38;100.00;101538.91;5009607;28;19917;-86
2021/11/17 11:06:23;;;;;;;;;;;;;;;6.39;100.00;101534.41;5011956;28;19924;-85
2021/11/17 11:08:54;;;;;;;;;;;;;;;6.40;100.00;101544.13;4976731;28;19944;-86
2021/11/17 11:11:20;;;;;;;;;;;;;;;6.40;100.00;101542.31;5006430;28;19913;-85
2021/11/17 11:13:50;;;;;;;;;;;;;;;6.41;100.00;101536.00;4995203;28;19996;-85
2021/11/17 11:16:15;;;;;;;;;;;;;;;6.42;100.00;101540.38;5012962;28;19914;-85
2021/11/17 11:18:46;;;;;;;;;;;;;;;6.45;100.00;101540.13;5011658;28;20405;-83
2021/11/17 11:21:12;;;;;;;;;;;;;;;6.47;100.00;101537.34;4993187;28;19914;-85
2021/11/17 11:23:53;;;;;;;;;;;;;;;6.49;100.00;101536.25;5012104;28;19921;-85
2021/11/17 11:26:20;;;;;;;;;;;;;;;6.52;100.00;101535.16;5010681;28;19925;-84
2021/11/17 11:28:50;;;;;;;;;;;;;;;6.54;100.00;101533.25;5012835;28;20420;-87
2021/11/17 11:31:19;;;;;;;;;;;;;;;6.55;100.00;101529.59;5012176;28;19921;-84
2021/11/17 11:33:54;;;;;;;;;;;;;;;6.56;100.00;101531.31;4968474;28;1128972;-87
2021/11/17 11:36:20;;;;;;;;;;;;;;;6.60;100.00;101531.91;5010084;28;19936;-84
2021/11/17 11:38:50;;;;;;;;;;;;;;;6.63;100.00;101527.19;5010138;28;19914;-85
2021/11/17 11:41:19;;;;;;;;;;;;;;;6.65;100.00;101529.75;5009523;28;19925;-84
2021/11/17 11:43:45;;;;;;;;;;;;;;;6.68;100.00;101526.81;5010483;28;20344;-84
2021/11/17 11:46:26;;;;;;;;;;;;;;;6.71;100.00;101526.59;4993587;28;19921;-87
2021/11/17 11:48:54;;;;;;;;;;;;;;;6.73;100.00;101527.28;4991017;28;20032;-85
2021/11/17 11:51:21;;;;;;;;;;;;;;;6.77;100.00;101526.09;5011265;28;19932;-86
2021/11/17 11:53:55;;;;;;;;;;;;;;;6.78;100.00;101525.09;4991256;28;19917;-85
2021/11/17 11:56:36;;;;;;;;;;;;;;;6.82;100.00;101526.59;4992846;28;19975;-84
2021/11/17 11:59:06;;;;;;;;;;;;;;;6.87;100.00;101531.53;5011225;28;20429;-84
2021/11/17 12:01:32;;;;;;;;;;;;;;;6.87;100.00;101528.88;4991132;28;19913;-85
2021/11/17 12:04:08;;;;;;;;;;;;;;;6.91;100.00;101520.50;5010552;28;20008;-84
2021/11/17 12:07:02;;;;;;;;;;;;;;;6.95;100.00;101521.94;5010387;28;19948;-87
2021/11/17 12:09:33;;;;;;;;;;;;;;;6.97;100.00;101514.66;4984211;28;19914;-87
2021/11/17 12:12:07;;;;;;;;;;;;;;;7.00;100.00;101518.91;5010710;28;19921;-84
2021/11/17 12:14:49;;;;;;;;;;;;;;;7.01;100.00;101524.13;5010146;28;19923;-85
2021/11/17 12:17:26;;;;;;;;;;;;;;;7.04;100.00;101515.03;4989999;28;19917;-87
2021/11/17 12:19:59;;;;;;;;;;;;;;;7.10;100.00;101519.84;4992243;28;21841;-84
2021/11/17 12:22:41;;;;;;;;;;;;;;;7.14;100.00;101525.81;4991813;28;19913;-85
2021/11/17 12:25:30;;;;;;;;;;;;;;;7.18;100.00;101516.56;5009801;28;19920;-85
2021/11/17 12:28:00;;;;;;;;;;;;;;;7.21;100.00;101513.66;4994333;28;19929;-85
2021/11/17 12:30:32;;;;;;;;;;;;;;;7.27;100.00;101509.63;4988607;28;19920;-84
2021/11/17 12:33:03;;;;;;;;;;;;;;;7.34;100.00;101517.03;5008845;28;19926;-85
2021/11/17 12:35:34;;;;;;;;;;;;;;;7.34;100.00;101511.69;4992078;28;19925;-85
2021/11/17 12:38:23;;;;;;;;;;;;;;;7.36;100.00;101528.41;4991846;28;19924;-84
2021/11/17 12:40:59;;;;;;;;;;;;;;;7.41;100.00;101525.38;4990359;28;19920;-85
2021/11/17 12:43:34;;;;;;;;;;;;;;;7.46;100.00;101521.34;5005683;28;20285;-83
2021/11/17 12:46:12;;;;;;;;;;;;;;;7.50;100.00;101526.44;4989749;28;20503;-84
2021/11/17 12:48:58;;;;;;;;;;;;;;;7.51;100.00;101529.00;5004629;28;20396;-84
2021/11/17 12:51:26;;;;;;;;;;;;;;;7.53;100.00;101531.53;4967377;28;19920;-83
2021/11/17 12:53:58;;;;;;;;;;;;;;;7.58;100.00;101529.34;5009742;28;19921;-84
2021/11/17 12:56:28;;;;;;;;;;;;;;;7.61;100.00;101529.09;4992726;28;20004;-84
2021/11/17 12:59:03;;;;;;;;;;;;;;;7.62;100.00;101525.44;4993570;28;19920;-85
2021/11/17 13:01:28;;;;;;;;;;;;;;;7.64;100.00;101532.34;4991816;28;19975;-86
2021/11/17 13:04:01;;;;;;;;;;;;;;;7.71;100.00;101535.38;4991984;28;19921;-86
2021/11/17 13:06:45;;;;;;;;;;;;;;;7.74;100.00;101542.25;5005452;28;19917;-85
2021/11/17 13:09:23;;;;;;;;;;;;;;;7.75;100.00;101546.66;4991357;28;20235;-86
2021/11/17 13:11:54;;;;;;;;;;;;;;;7.78;100.00;101541.88;4993302;28;20122;-86
2021/11/17 13:14:30;;;;;;;;;;;;;;;7.81;100.00;101544.31;5009262;28;19924;-85
2021/11/17 13:17:03;;;;;;;;;;;;;;;7.85;100.00;101551.09;4941989;28;19914;-86
2021/11/17 13:19:37;;;;;;;;;;;;;;;7.87;100.00;101549.13;5004469;28;19952;-84
2021/11/17 13:22:17;;;;;;;;;;;;;;;7.89;100.00;101549.84;5006890;28;20338;-84
2021/11/17 13:24:43;;;;;;;;;;;;;;;7.93;100.00;101546.94;4984344;28;20020;-82
2021/11/17 13:27:09;;;;;;;;;;;;;;;7.95;100.00;101556.50;5003517;28;19925;-87
2021/11/17 13:29:52;;;;;;;;;;;;;;;8.01;100.00;101552.47;4988362;28;19983;-85
2021/11/17 13:32:19;;;;;;;;;;;;;;;8.06;100.00;101550.28;5004836;28;19924;-84
2021/11/17 13:34:46;;;;;;;;;;;;;;;8.11;100.00;101550.72;5008407;28;20363;-86
2021/11/17 13:37:34;;;;;;;;;;;;;;;8.20;100.00;101544.59;5010213;28;19914;-84
2021/11/17 13:40:10;;;;;;;;;;;;;;;8.27;100.00;101556.47;4977631;28;20548;-85
2021/11/17 13:42:36;;;;;;;;;;;;;;;8.35;100.00;101551.31;4991849;28;19913;-86
2021/11/17 13:45:07;;;;;;;;;;;;;;;8.40;100.00;101558.13;5008946;28;19940;-84
2021/11/17 13:47:32;;;;;;;;;;;;;;;8.46;100.00;101561.13;5007405;28;19918;-85
2021/11/17 13:49:59;;;;;;;;;;;;;;;8.51;100.00;101566.06;5009251;28;19928;-85
2021/11/17 13:52:28;;;;;;;;;;;;;;;8.54;100.00;101571.16;5007268;28;20014;-83
2021/11/17 13:54:53;;;;;;;;;;;;;;;8.58;100.00;101577.94;5008640;28;19924;-85
2021/11/17 13:57:19;;;;;;;;;;;;;;;8.54;100.00;101577.34;4989175;28;19917;-84
2021/11/17 13:59:45;;;;;;;;;;;;;;;8.53;100.00;101580.16;4990926;28;19920;-85
2021/11/17 14:02:10;;;;;;;;;;;;;;;8.50;100.00;101586.63;4974580;28;19960;-86
2021/11/17 14:04:35;;;;;;;;;;;;;;;8.52;100.00;101589.19;5008485;28;19967;-84
2021/11/17 14:07:01;;;;;;;;;;;;;;;8.50;100.00;101581.28;5008594;28;19925;-86
2021/11/17 14:09:27;;;;;;;;;;;;;;;8.46;100.00;101578.97;5007537;28;20067;-85
2021/11/17 14:11:53;;;;;;;;;;;;;;;8.46;100.00;101585.19;4990604;28;19960;-85
2021/11/17 14:14:18;;;;;;;;;;;;;;;8.48;100.00;101588.56;5008361;28;20598;-83
2021/11/17 14:16:44;;;;;;;;;;;;;;;8.46;100.00;101584.31;5007597;28;19924;-87
2021/11/17 14:19:09;;;;;;;;;;;;;;;8.45;100.00;101583.50;5006905;28;19913;-84
2021/11/17 14:21:35;;;;;;;;;;;;;;;8.42;100.00;101578.41;4984779;28;19925;-88
2021/11/17 14:24:00;;;;;;;;;;;;;;;8.44;100.00;101588.97;4990594;28;20665;-86
2021/11/17 14:26:26;;;;;;;;;;;;;;;8.43;100.00;101585.47;5007567;28;19917;-86
2021/11/17 14:28:53;;;;;;;;;;;;;;;8.41;100.00;101581.22;5007684;28;19971;-88
2021/11/17 14:31:21;;;;;;;;;;;;;;;8.42;100.00;101582.91;4993124;28;19928;-84
2021/11/17 14:33:50;;;;;;;;;;;;;;;8.40;100.00;101579.50;5009837;28;19923;-87
2021/11/17 14:36:18;;;;;;;;;;;;;;;8.38;100.00;101586.81;5006492;28;19976;-85
2021/11/17 14:38:43;;;;;;;;;;;;;;;8.36;100.00;101595.78;4987609;28;19913;-87
2021/11/17 14:41:09;;;;;;;;;;;;;;;8.36;100.00;101587.75;5006832;28;20024;-86
2021/11/17 14:43:34;;;;;;;;;;;;;;;8.34;100.00;101597.75;4990890;28;20373;-85
2021/11/17 14:45:59;;;;;;;;;;;;;;;8.33;100.00;101596.06;4990878;28;19948;-86
2021/11/17 14:48:24;;;;;;;;;;;;;;;8.33;100.00;101590.69;5005753;28;20362;-87
2021/11/17 14:50:51;;;;;;;;;;;;;;;8.32;100.00;101597.03;5006300;28;19921;-85
2021/11/17 14:53:16;;;;;;;;;;;;;;;8.30;100.00;101598.97;5001668;28;19920;-86
2021/11/17 14:55:41;;;;;;;;;;;;;;;8.28;100.00;101611.63;4990720;28;19913;-85
2021/11/17 14:58:07;;;;;;;;;;;;;;;8.26;100.00;101616.28;4991171;28;19913;-84
2021/11/17 15:00:37;;;;;;;;;;;;;;;8.25;100.00;101619.91;4989741;28;19924;-85
2021/11/17 15:03:03;;;;;;;;;;;;;;;8.26;100.00;101618.09;4989841;28;20329;-86
2021/11/17 15:05:30;;;;;;;;;;;;;;;8.24;100.00;101612.03;5005767;28;19948;-85
2021/11/17 15:07:55;;;;;;;;;;;;;;;8.23;100.00;101611.19;4987684;28;20700;-85
2021/11/17 15:10:21;;;;;;;;;;;;;;;8.23;100.00;101613.00;5010166;28;19913;-85
2021/11/17 15:12:47;;;;;;;;;;;;;;;8.21;100.00;101614.97;5011643;28;20428;-86
2021/11/17 15:15:18;;;;;;;;;;;;;;;8.18;100.00;101610.72;4994531;28;19913;-89
2021/11/17 15:17:43;;;;;;;;;;;;;;;8.14;100.00;101612.81;5021330;28;20450;-84
2021/11/17 15:20:09;;;;;;;;;;;;;;;8.11;100.00;101613.06;5011921;28;19917;-85
2021/11/17 15:22:37;;;;;;;;;;;;;;;8.08;100.00;101609.78;5011382;28;19913;-87
2021/11/17 15:25:04;;;;;;;;;;;;;;;8.05;100.00;101602.03;5006920;28;20000;-86